createdAt,value
2022-09-10T00:00:59.238Z,57.79
2022-09-10T00:04:08.071Z,56.75
2022-09-10T00:07:11.601Z,57.58
2022-09-10T00:10:14.770Z,59.67
2022-09-10T00:13:20.918Z,61.27
2022-09-10T00:16:23.976Z,62.31
2022-09-10T00:19:27.877Z,69.24
2022-09-10T00:22:30.390Z,69.89
2022-09-10T00:25:33.081Z,69.97
2022-09-10T00:28:35.788Z,68.70
2022-09-10T00:31:39.522Z,67.91
2022-09-10T00:34:42.322Z,66.18
2022-09-10T00:37:46.109Z,66.63
2022-09-10T00:40:48.999Z,66.72
2022-09-10T00:43:53.365Z,65.96
2022-09-10T00:46:56.016Z,65.71
2022-09-10T00:50:02.662Z,65.15
2022-09-10T00:53:07.762Z,65.03
2022-09-10T00:56:10.432Z,63.74
2022-09-10T00:59:14.090Z,63.94
2022-09-10T01:02:16.987Z,63.34
2022-09-10T01:05:19.825Z,63.29
2022-09-10T01:08:22.845Z,62.75
2022-09-10T01:11:39.050Z,62.71
2022-09-10T01:14:52.458Z,62.44
2022-09-10T01:18:02.946Z,62.33
2022-09-10T01:21:10.446Z,62.05
2022-09-10T01:24:32.466Z,61.41
2022-09-10T01:27:39.387Z,61.78
2022-09-10T01:30:43.991Z,61.63
2022-09-10T01:33:49.513Z,61.34
2022-09-10T01:36:54.366Z,59.44
2022-09-10T01:39:59.390Z,57.57
2022-09-10T01:43:05.711Z,61.47
2022-09-10T01:46:17.963Z,61.71
2022-09-10T01:49:27.843Z,64.99
2022-09-10T01:52:36.512Z,63.98
2022-09-10T01:55:46.223Z,68.00
2022-09-10T01:58:49.134Z,67.32
2022-09-10T02:02:03.354Z,66.86
2022-09-10T02:05:07.866Z,66.70
2022-09-10T02:08:14.589Z,65.28
2022-09-10T02:11:18.169Z,65.60
2022-09-10T02:14:24.826Z,63.50
2022-09-10T02:17:58.334Z,65.84
2022-09-10T02:21:03.987Z,66.63
2022-09-10T02:24:09.550Z,66.49
2022-09-10T02:27:12.742Z,67.87
2022-09-10T02:30:16.355Z,68.15
2022-09-10T02:33:19.126Z,66.87
2022-09-10T02:36:25.483Z,68.01
2022-09-10T02:39:28.445Z,68.61
2022-09-10T02:42:31.244Z,66.86
2022-09-10T02:45:33.917Z,68.64
2022-09-10T02:48:36.768Z,68.11
2022-09-10T02:51:41.259Z,68.26
2022-09-10T02:54:44.296Z,68.30
2022-09-10T02:57:47.214Z,68.50
2022-09-10T03:00:50.230Z,68.71
2022-09-10T03:03:54.486Z,68.32
2022-09-10T03:06:59.508Z,67.79
2022-09-10T03:10:02.481Z,67.38
2022-09-10T03:13:05.740Z,66.89
2022-09-10T03:16:09.755Z,66.77
2022-09-10T03:19:13.557Z,66.73
2022-09-10T03:22:16.242Z,66.47
2022-09-10T03:25:19.459Z,66.31
2022-09-10T03:28:23.935Z,66.21
2022-09-10T03:31:26.889Z,66.37
2022-09-10T03:34:29.775Z,66.45
2022-09-10T03:37:32.394Z,66.75
2022-09-10T03:40:35.164Z,67.01
2022-09-10T03:43:37.779Z,64.89
2022-09-10T03:46:44.984Z,67.42
2022-09-10T03:49:50.367Z,67.51
2022-09-10T03:52:52.953Z,67.74
2022-09-10T03:55:55.753Z,67.79
2022-09-10T03:58:58.454Z,68.04
2022-09-10T04:02:02.857Z,68.33
2022-09-10T04:05:09.134Z,68.56
2022-09-10T04:08:14.189Z,68.53
2022-09-10T04:11:17.086Z,68.58
2022-09-10T04:14:19.859Z,68.59
2022-09-10T04:17:24.844Z,68.63
2022-09-10T04:20:31.410Z,68.58
2022-09-10T04:23:42.798Z,68.28
2022-09-10T04:26:46.177Z,68.64
2022-09-10T04:29:51.608Z,69.03
2022-09-10T04:32:54.261Z,69.17
2022-09-10T04:35:59.986Z,69.22
2022-09-10T04:39:02.961Z,69.07
2022-09-10T04:42:07.863Z,67.26
2022-09-10T04:45:13.052Z,69.31
2022-09-10T04:48:17.678Z,67.55
2022-09-10T04:51:20.324Z,68.47
2022-09-10T04:54:25.351Z,67.76
2022-09-10T04:57:28.353Z,68.73
2022-09-10T05:00:30.870Z,69.11
2022-09-10T05:03:33.953Z,70.10
2022-09-10T05:06:36.886Z,69.45
2022-09-10T05:09:41.009Z,67.63
2022-09-10T05:12:43.648Z,66.87
2022-09-10T05:15:47.453Z,69.36
2022-09-10T05:18:52.520Z,69.99
2022-09-10T05:21:55.255Z,70.12
2022-09-10T05:24:58.164Z,69.93
2022-09-10T05:28:01.036Z,69.74
2022-09-10T05:31:03.686Z,69.76
2022-09-10T05:34:07.801Z,69.74
2022-09-10T05:37:11.458Z,69.47
2022-09-10T05:40:15.446Z,68.98
2022-09-10T05:43:18.534Z,69.07
2022-09-10T05:46:21.702Z,69.09
2022-09-10T05:49:27.539Z,68.68
2022-09-10T05:52:32.268Z,68.47
2022-09-10T05:55:38.329Z,68.11
2022-09-10T05:58:44.741Z,68.10
2022-09-10T06:01:50.962Z,68.01
2022-09-10T06:04:54.750Z,67.95
2022-09-10T06:07:58.384Z,67.68
2022-09-10T06:11:04.526Z,67.36
2022-09-10T06:14:14.401Z,67.17
2022-09-10T06:17:17.519Z,66.92
2022-09-10T06:20:20.401Z,66.79
2022-09-10T06:23:26.044Z,67.08
2022-09-10T06:26:28.608Z,66.87
2022-09-10T06:29:36.060Z,66.87
2022-09-10T06:32:39.383Z,66.89
2022-09-10T06:35:44.115Z,66.68
2022-09-10T06:38:49.038Z,66.92
2022-09-10T06:41:53.161Z,66.32
2022-09-10T06:45:17.685Z,66.13
2022-09-10T06:48:47.630Z,65.78
2022-09-10T06:51:51.622Z,65.78
2022-09-10T06:54:54.452Z,65.62
2022-09-10T06:58:09.088Z,65.05
2022-09-10T07:01:15.413Z,66.59
2022-09-10T07:04:21.492Z,66.78
2022-09-10T07:07:24.536Z,66.44
2022-09-10T07:10:27.795Z,66.49
2022-09-10T07:13:31.271Z,66.57
2022-09-10T07:16:35.057Z,67.66
2022-09-10T07:19:37.847Z,67.14
2022-09-10T07:22:48.580Z,66.27
2022-09-10T07:25:55.659Z,67.80
2022-09-10T07:29:12.354Z,66.30
2022-09-10T07:32:15.249Z,65.82
2022-09-10T07:35:18.038Z,65.08
2022-09-10T07:38:22.203Z,64.55
2022-09-10T07:41:27.611Z,64.54
2022-09-10T07:44:30.430Z,64.24
2022-09-10T07:47:36.780Z,63.76
2022-09-10T07:50:40.608Z,63.65
2022-09-10T07:53:50.341Z,63.32
2022-09-10T07:56:55.710Z,63.05
2022-09-10T08:00:00.132Z,63.92
2022-09-10T08:03:05.706Z,63.61
2022-09-10T08:06:09.611Z,62.89
2022-09-10T08:09:17.201Z,62.31
2022-09-10T08:12:25.145Z,62.27
2022-09-10T08:15:35.552Z,62.24
2022-09-10T08:18:38.540Z,61.72
2022-09-10T08:21:41.609Z,61.36
2022-09-10T08:24:47.310Z,61.61
2022-09-10T08:27:50.243Z,60.47
2022-09-10T08:30:58.642Z,61.05
2022-09-10T08:34:01.739Z,60.35
2022-09-10T08:37:04.754Z,57.37
2022-09-10T08:40:11.390Z,56.86
2022-09-10T08:43:15.205Z,58.53
2022-09-10T08:46:21.742Z,60.48
2022-09-10T08:49:29.974Z,60.71
2022-09-10T08:52:37.768Z,64.83
2022-09-10T08:55:45.994Z,69.11
2022-09-10T08:58:54.244Z,66.34
2022-09-10T09:01:59.898Z,63.78
2022-09-10T09:05:05.867Z,62.03
2022-09-10T09:08:11.758Z,59.87
2022-09-10T09:11:16.976Z,58.13
2022-09-10T09:14:25.662Z,55.96
2022-09-10T09:17:38.003Z,56.00
2022-09-10T09:20:45.739Z,56.36
2022-09-10T09:24:12.119Z,57.65
2022-09-10T09:27:19.583Z,65.62
2022-09-10T09:30:24.280Z,62.15
2022-09-10T09:33:29.552Z,61.48
2022-09-10T09:36:37.143Z,59.76
2022-09-10T09:39:42.862Z,58.19
2022-09-10T09:42:48.417Z,56.40
2022-09-10T09:45:53.552Z,59.00
2022-09-10T09:48:57.942Z,57.34
2022-09-10T09:52:02.989Z,65.02
2022-09-10T09:55:15.247Z,62.93
2022-09-10T09:58:29.229Z,61.91
2022-09-10T10:01:32.783Z,60.17
2022-09-10T10:04:40.167Z,58.35
2022-09-10T10:07:47.920Z,57.93
2022-09-10T10:10:52.044Z,55.62
2022-09-10T10:14:11.466Z,55.96
2022-09-10T10:17:32.421Z,57.03
2022-09-10T10:20:36.261Z,61.39
2022-09-10T10:23:39.072Z,65.04
2022-09-10T10:26:43.550Z,63.61
2022-09-10T10:30:01.688Z,62.03
2022-09-10T10:33:04.418Z,57.46
2022-09-10T10:36:14.684Z,56.67
2022-09-10T10:39:23.801Z,56.44
2022-09-10T10:42:29.820Z,60.87
2022-09-10T10:45:42.040Z,61.76
2022-09-10T10:49:03.587Z,66.10
2022-09-10T10:52:18.720Z,64.68
2022-09-10T10:55:23.812Z,61.36
2022-09-10T10:58:39.133Z,58.82
2022-09-10T11:01:45.424Z,55.09
2022-09-10T11:04:59.331Z,54.40
2022-09-10T11:08:22.916Z,61.91
2022-09-10T11:11:37.983Z,60.67
2022-09-10T11:14:45.284Z,61.21
2022-09-10T11:17:51.041Z,54.77
2022-09-10T11:20:58.456Z,54.87
2022-09-10T11:24:03.982Z,53.84
2022-09-10T11:27:09.343Z,59.76
2022-09-10T11:37:15.052Z,63.63
2022-09-10T11:40:26.628Z,64.82
2022-09-10T11:43:41.867Z,60.74
2022-09-10T11:46:55.870Z,52.80
2022-09-10T11:50:01.733Z,53.26
2022-09-10T11:53:06.827Z,59.49
2022-09-10T11:56:27.489Z,60.39
2022-09-10T11:59:53.761Z,59.53
2022-09-10T12:03:12.932Z,60.24
2022-09-10T12:06:22.097Z,60.54
2022-09-10T12:09:32.231Z,62.58
2022-09-10T12:16:19.534Z,61.60
2022-09-10T12:19:26.481Z,60.40
2022-09-10T12:22:41.209Z,53.93
2022-09-10T12:25:46.469Z,54.70
2022-09-10T12:28:57.904Z,56.43
2022-09-10T12:32:27.965Z,57.17
2022-09-10T12:35:41.270Z,58.28
2022-09-10T12:38:50.767Z,60.19
2022-09-10T12:42:16.095Z,58.70
2022-09-10T12:45:36.249Z,60.07
2022-09-10T12:48:42.983Z,60.93
2022-09-10T12:51:56.564Z,60.67
2022-09-10T12:55:04.133Z,58.89
2022-09-10T12:58:11.944Z,58.71
2022-09-10T13:01:18.216Z,58.43
2022-09-10T13:04:24.188Z,58.89
2022-09-10T13:07:32.838Z,61.26
2022-09-10T13:10:36.369Z,62.12
2022-09-10T13:13:40.538Z,62.53
2022-09-10T13:16:43.370Z,61.50
2022-09-10T13:19:50.729Z,57.49
2022-09-10T13:22:58.164Z,57.22
2022-09-10T13:26:30.485Z,58.15
2022-09-10T13:29:34.939Z,59.33
2022-09-10T13:32:40.626Z,60.77
2022-09-10T13:35:55.537Z,61.40
2022-09-10T13:39:17.025Z,59.30
2022-09-10T13:42:31.279Z,60.04
2022-09-10T13:45:39.276Z,59.03
2022-09-10T13:48:45.566Z,60.86
2022-09-10T13:51:51.150Z,59.92
2022-09-10T13:54:55.967Z,61.57
2022-09-10T13:58:01.360Z,60.12
2022-09-10T14:01:04.916Z,61.26
2022-09-10T14:04:21.330Z,60.61
2022-09-10T14:07:26.160Z,58.93
2022-09-10T14:10:28.945Z,59.96
2022-09-10T14:13:34.823Z,58.02
2022-09-10T14:16:40.360Z,58.44
2022-09-10T14:19:48.598Z,58.94
2022-09-10T14:22:53.062Z,59.22
2022-09-10T14:26:09.416Z,56.31
2022-09-10T14:29:24.108Z,58.90
2022-09-10T14:32:28.331Z,60.15
2022-09-10T14:35:38.599Z,59.67
2022-09-10T14:38:42.111Z,58.59
2022-09-10T14:41:44.751Z,59.92
2022-09-10T14:44:49.981Z,59.36
2022-09-10T14:47:53.808Z,54.75
2022-09-10T14:51:17.337Z,58.62
2022-09-10T14:54:20.208Z,57.78
2022-09-10T14:57:22.813Z,56.91
2022-09-10T15:00:25.906Z,57.45
2022-09-10T15:03:28.720Z,56.91
2022-09-10T15:06:31.414Z,58.13
2022-09-10T15:09:34.090Z,58.64
2022-09-10T15:12:39.228Z,60.15
2022-09-10T15:15:41.843Z,59.91
2022-09-10T15:18:44.597Z,57.95
2022-09-10T15:21:47.206Z,59.28
2022-09-10T15:25:08.654Z,58.87
2022-09-10T15:28:12.366Z,56.47
2022-09-10T15:31:16.754Z,55.92
2022-09-10T15:34:19.563Z,55.01
2022-09-10T15:37:22.495Z,54.81
2022-09-10T15:40:25.017Z,55.75
2022-09-10T15:43:27.605Z,56.46
2022-09-10T15:46:30.369Z,58.80
2022-09-10T15:49:34.675Z,58.12
2022-09-10T15:52:37.483Z,58.58
2022-09-10T15:55:40.191Z,58.89
2022-09-10T15:58:47.192Z,59.37
2022-09-10T16:01:49.941Z,59.95
2022-09-10T16:04:53.283Z,59.54
2022-09-10T16:07:56.050Z,59.60
2022-09-10T16:10:59.351Z,59.67
2022-09-10T16:14:04.762Z,59.86
2022-09-10T16:17:09.974Z,60.06
2022-09-10T16:20:12.507Z,60.91
2022-09-10T16:23:16.527Z,61.29
2022-09-10T16:26:20.421Z,62.26
2022-09-10T16:29:23.055Z,63.62
2022-09-10T16:32:25.732Z,61.88
2022-09-10T16:35:28.405Z,60.28
2022-09-10T16:38:31.938Z,58.96
2022-09-10T16:41:34.739Z,59.90
2022-09-10T16:44:38.117Z,62.66
2022-09-10T16:47:40.936Z,61.93
2022-09-10T16:50:43.597Z,66.43
2022-09-10T16:53:48.113Z,63.93
2022-09-10T16:56:50.818Z,66.13
2022-09-10T16:59:53.597Z,66.01
2022-09-10T17:02:58.552Z,64.12
2022-09-10T17:06:01.375Z,64.06
2022-09-10T17:09:04.284Z,61.81
2022-09-10T17:12:09.856Z,63.59
2022-09-10T17:15:12.484Z,63.50
2022-09-10T17:18:16.022Z,63.01
2022-09-10T17:21:21.017Z,60.52
2022-09-10T17:24:26.854Z,58.46
2022-09-10T17:27:30.320Z,58.57
2022-09-10T17:30:32.990Z,60.29
2022-09-10T17:33:35.846Z,61.45
2022-09-10T17:36:39.394Z,64.35
2022-09-10T17:39:42.081Z,67.21
2022-09-10T17:42:45.061Z,65.88
2022-09-10T17:45:47.675Z,66.68
2022-09-10T17:48:50.821Z,67.58
2022-09-10T17:51:53.559Z,65.30
2022-09-10T17:54:57.158Z,67.82
2022-09-10T17:58:00.084Z,67.81
2022-09-10T18:01:05.394Z,66.58
2022-09-10T18:04:12.076Z,67.03
2022-09-10T18:07:14.748Z,66.98
2022-09-10T18:10:17.687Z,66.29
2022-09-10T18:13:20.426Z,66.15
2022-09-10T18:16:24.164Z,65.30
2022-09-10T18:19:27.463Z,65.08
2022-09-10T18:22:30.072Z,64.46
2022-09-10T18:25:32.947Z,63.90
2022-09-10T18:28:35.652Z,64.05
2022-09-10T18:31:39.114Z,63.75
2022-09-10T18:34:42.763Z,63.61
2022-09-10T18:37:49.447Z,63.25
2022-09-10T18:40:52.123Z,63.26
2022-09-10T18:43:58.900Z,62.93
2022-09-10T18:47:01.853Z,62.45
2022-09-10T18:50:06.149Z,62.03
2022-09-10T18:53:09.240Z,61.97
2022-09-10T18:56:13.080Z,62.31
2022-09-10T18:59:19.466Z,62.18
2022-09-10T19:02:22.481Z,61.97
2022-09-10T19:05:25.201Z,61.84
2022-09-10T19:08:27.967Z,61.60
2022-09-10T19:11:32.750Z,61.25
2022-09-10T19:14:35.590Z,60.97
2022-09-10T19:17:38.334Z,60.94
2022-09-10T19:20:40.981Z,60.95
2022-09-10T19:23:44.492Z,60.88
2022-09-10T19:26:47.243Z,60.65
2022-09-10T19:29:50.389Z,60.85
2022-09-10T19:32:53.762Z,61.20
2022-09-10T19:35:56.770Z,61.12
2022-09-10T19:39:01.274Z,61.11
2022-09-10T19:42:06.720Z,61.16
2022-09-10T19:45:10.775Z,61.12
2022-09-10T19:48:13.726Z,61.25
2022-09-10T19:51:18.500Z,61.82
2022-09-10T19:54:22.069Z,62.30
2022-09-10T19:57:24.848Z,62.75
2022-09-10T20:00:45.930Z,62.83
2022-09-10T20:03:50.180Z,62.91
2022-09-10T20:06:53.226Z,62.81
2022-09-10T20:09:55.992Z,62.92
2022-09-10T20:12:58.575Z,62.90
2022-09-10T20:16:02.080Z,62.80
2022-09-10T20:19:05.296Z,62.60
2022-09-10T20:22:07.987Z,62.44
2022-09-10T20:25:10.850Z,62.48
2022-09-10T20:28:13.821Z,62.40
2022-09-10T20:31:16.860Z,62.41
2022-09-10T20:34:20.794Z,62.23
2022-09-10T20:37:24.282Z,61.83
2022-09-10T20:40:27.111Z,61.61
2022-09-10T20:43:29.834Z,61.34
2022-09-10T20:46:33.792Z,61.43
2022-09-10T20:49:36.486Z,61.67
2022-09-10T20:52:39.421Z,61.93
2022-09-10T20:55:42.465Z,61.89
2022-09-10T20:58:48.596Z,61.58
2022-09-10T21:01:51.907Z,61.24
2022-09-10T21:04:54.979Z,61.26
2022-09-10T21:07:58.636Z,61.19
2022-09-10T21:11:02.455Z,61.23
2022-09-10T21:14:06.453Z,61.00
2022-09-10T21:17:09.522Z,61.13
2022-09-10T21:20:12.951Z,61.13
2022-09-10T21:23:16.309Z,61.02
2022-09-10T21:26:20.134Z,60.87
2022-09-10T21:29:23.858Z,61.25
2022-09-10T21:32:26.787Z,61.08
2022-09-10T21:35:30.522Z,61.31
2022-09-10T21:38:34.974Z,61.38
2022-09-10T21:41:39.455Z,61.37
2022-09-10T21:44:42.102Z,62.69
2022-09-10T21:47:44.991Z,63.53
2022-09-10T21:50:47.865Z,63.88
2022-09-10T21:53:52.506Z,64.21
2022-09-10T21:56:55.417Z,64.21
2022-09-10T21:59:58.232Z,64.17
2022-09-10T22:03:01.021Z,63.98
2022-09-10T22:06:04.663Z,63.97
2022-09-10T22:09:09.301Z,63.74
2022-09-10T22:12:12.089Z,63.60
2022-09-10T22:15:15.422Z,63.22
2022-09-10T22:18:19.875Z,62.87
2022-09-10T22:21:22.908Z,62.62
2022-09-10T22:24:25.838Z,62.42
2022-09-10T22:27:28.552Z,62.21
2022-09-10T22:30:31.383Z,61.81
2022-09-10T22:33:34.533Z,61.79
2022-09-10T22:36:37.975Z,61.79
2022-09-10T22:39:40.902Z,62.15
2022-09-10T22:42:43.832Z,62.42
2022-09-10T22:45:46.591Z,62.29
2022-09-10T22:48:49.250Z,62.21
2022-09-10T22:51:52.288Z,62.15
2022-09-10T22:54:56.943Z,61.78
2022-09-10T22:57:59.751Z,61.91
2022-09-10T23:01:07.437Z,61.87
2022-09-10T23:04:11.237Z,61.89
2022-09-10T23:07:14.244Z,62.04
2022-09-10T23:10:17.563Z,62.44
2022-09-10T23:13:20.459Z,62.22
2022-09-10T23:16:24.135Z,62.16
2022-09-10T23:19:28.800Z,62.24
2022-09-10T23:22:32.073Z,62.35
2022-09-10T23:25:35.647Z,62.87
2022-09-10T23:28:38.536Z,63.06
2022-09-10T23:31:41.202Z,63.17
2022-09-10T23:34:44.569Z,63.43
2022-09-10T23:37:51.553Z,63.42
2022-09-10T23:40:55.472Z,63.28
2022-09-10T23:43:58.264Z,63.08
2022-09-10T23:47:00.878Z,63.12
2022-09-10T23:50:05.492Z,62.68
2022-09-10T23:53:08.630Z,62.38
2022-09-10T23:56:11.301Z,62.50
2022-09-10T23:59:14.727Z,63.03
